Terminal Aerodrome Forecast
Issued by NWS

Home | Current Version | Previous Version | Text Only | Print | Product List | Glossary On
Versions: 1 2 3 4 5 6 7 8 9 10 11 12 13 14 15 16 17
000
FTAK31 PAJN 010500
TAFAKT
TAF
PAKT 010525Z 0106/0206 15008KT 6SM -SHRA BR SCT012 OVC022
      TEMPO 0106/0108 4SM -RA BR BKN012 OVC025
     FM010900 14010KT 6SM -SHRA BR SCT007 BKN012 OVC022
     FM011900 12008KT P6SM -SHRA SCT015 OVC025
     FM012300 14009KT P6SM VCSH SCT015 OVC030
     FM020100 14005KT P6SM SCT015 OVC035
      AMD LTD TO CLD VIS AND WIND 0106/0115=

USA.gov is the U.S. government's official web portal to all federal, state and local government web resources and services.